TAF and METAR

METAR for El Alto International Airport

SLLP 250000Z 01005KT 9999 NSC 06/M12 Q1034
Report created 25. jun 02:00
wind 5 knots from N (010°) visibility > 10km No significant clouds. Temperature 6° with dewpoint at -12° (Humidity 26.10%) Pressure 1034 hPa

TAF for El Alto International Airport

TAF SLLP 242200Z 2500/2524 04003KT 9999 NSC TX15/2520Z TNM06/2510Z TEMPO 2516/2520 33013KT
Report created 25. jun 00:00

between 25. jun 02:00 - 25. jun 02:00

wind 3 knots from NE (040°) visibility > 10km No significant clouds. Max temperature 15° expected today at around 22 o'clock Min temperature -06° expected today at around 12 o'clock

temporarily between 25. jun 18:00 - 25. jun 22:00

wind 13 knots from NNW (330°)